Terminal Aerodrome Forecast
Issued by NWS Pocatello, ID

Home | Current Version | Previous Version | Text Only | Print | Product List | Glossary On
Versions: 1 2 3 4 5 6 7 8 9 10 11 12 13 14 15
000
FTUS45 KPIH 222300
TAFBYI
TAF
KBYI 222323Z 2300/2324 26008KT P6SM SCT050 BKN090
     FM230200 VRB06KT P6SM SCT070=

USA.gov is the U.S. government's official web portal to all federal, state and local government web resources and services.